sensor_id;sensor_type;location;lat;lon;timestamp;pressure;altitude;pressure_sealevel;temperature
68127;BMP180;54931;52.098;21.006;2023-04-24T00:01:28;99426.40;;;9.50
68127;BMP180;54931;52.098;21.006;2023-04-24T00:03:56;99423.20;;;9.50
68127;BMP180;54931;52.098;21.006;2023-04-24T00:06:26;99427.00;;;9.50
68127;BMP180;54931;52.098;21.006;2023-04-24T00:09:00;99423.00;;;9.50
68127;BMP180;54931;52.098;21.006;2023-04-24T00:11:29;99423.00;;;9.50
68127;BMP180;54931;52.098;21.006;2023-04-24T00:13:57;99418.40;;;9.50
68127;BMP180;54931;52.098;21.006;2023-04-24T00:16:24;99421.40;;;9.50
68127;BMP180;54931;52.098;21.006;2023-04-24T00:18:52;99421.40;;;9.40
68127;BMP180;54931;52.098;21.006;2023-04-24T00:21:23;99418.80;;;9.40
68127;BMP180;54931;52.098;21.006;2023-04-24T00:23:53;99416.20;;;9.32
68127;BMP180;54931;52.098;21.006;2023-04-24T00:26:20;99410.20;;;9.30
68127;BMP180;54931;52.098;21.006;2023-04-24T00:28:49;99407.40;;;9.40
68127;BMP180;54931;52.098;21.006;2023-04-24T00:31:17;99402.60;;;9.40
68127;BMP180;54931;52.098;21.006;2023-04-24T00:33:45;99405.60;;;9.40
68127;BMP180;54931;52.098;21.006;2023-04-24T00:36:12;99399.60;;;9.40
68127;BMP180;54931;52.098;21.006;2023-04-24T00:38:40;99391.00;;;9.40
68127;BMP180;54931;52.098;21.006;2023-04-24T00:41:08;99388.40;;;9.42
68127;BMP180;54931;52.098;21.006;2023-04-24T00:43:36;99387.60;;;9.50
68127;BMP180;54931;52.098;21.006;2023-04-24T00:46:04;99387.00;;;9.50
68127;BMP180;54931;52.098;21.006;2023-04-24T00:48:32;99389.20;;;9.50
68127;BMP180;54931;52.098;21.006;2023-04-24T00:50:59;99388.20;;;9.58
68127;BMP180;54931;52.098;21.006;2023-04-24T00:53:27;99390.80;;;9.66
68127;BMP180;54931;52.098;21.006;2023-04-24T00:55:55;99397.00;;;9.80
68127;BMP180;54931;52.098;21.006;2023-04-24T00:58:23;99399.20;;;9.90
68127;BMP180;54931;52.098;21.006;2023-04-24T01:00:52;99393.40;;;10.00
68127;BMP180;54931;52.098;21.006;2023-04-24T01:03:26;99388.00;;;10.00
68127;BMP180;54931;52.098;21.006;2023-04-24T01:05:56;99382.40;;;10.10
68127;BMP180;54931;52.098;21.006;2023-04-24T01:08:26;99381.20;;;10.20
68127;BMP180;54931;52.098;21.006;2023-04-24T01:10:57;99387.40;;;10.30
68127;BMP180;54931;52.098;21.006;2023-04-24T01:13:25;99395.20;;;10.28
68127;BMP180;54931;52.098;21.006;2023-04-24T01:15:52;99395.60;;;10.30
68127;BMP180;54931;52.098;21.006;2023-04-24T01:18:20;99393.80;;;10.22
68127;BMP180;54931;52.098;21.006;2023-04-24T01:20:57;99389.80;;;10.20
68127;BMP180;54931;52.098;21.006;2023-04-24T01:23:26;99391.20;;;10.20
68127;BMP180;54931;52.098;21.006;2023-04-24T01:25:54;99393.20;;;10.20
68127;BMP180;54931;52.098;21.006;2023-04-24T01:28:22;99391.20;;;10.10
68127;BMP180;54931;52.098;21.006;2023-04-24T01:30:50;99394.20;;;10.10
68127;BMP180;54931;52.098;21.006;2023-04-24T01:33:21;99390.00;;;10.00
68127;BMP180;54931;52.098;21.006;2023-04-24T01:35:49;99387.00;;;9.90
68127;BMP180;54931;52.098;21.006;2023-04-24T01:38:17;99390.20;;;9.90
68127;BMP180;54931;52.098;21.006;2023-04-24T01:40:46;99387.20;;;9.90
68127;BMP180;54931;52.098;21.006;2023-04-24T01:43:14;99385.80;;;9.84
68127;BMP180;54931;52.098;21.006;2023-04-24T01:45:42;99386.20;;;9.80
68127;BMP180;54931;52.098;21.006;2023-04-24T01:48:11;99378.40;;;9.70
68127;BMP180;54931;52.098;21.006;2023-04-24T01:50:39;99378.60;;;9.70
68127;BMP180;54931;52.098;21.006;2023-04-24T01:53:07;99376.80;;;9.70
68127;BMP180;54931;52.098;21.006;2023-04-24T01:55:34;99377.00;;;9.60
68127;BMP180;54931;52.098;21.006;2023-04-24T01:58:02;99370.80;;;9.60
68127;BMP180;54931;52.098;21.006;2023-04-24T02:00:30;99369.80;;;9.60
68127;BMP180;54931;52.098;21.006;2023-04-24T02:02:57;99366.40;;;9.50
68127;BMP180;54931;52.098;21.006;2023-04-24T02:05:25;99366.00;;;9.50
68127;BMP180;54931;52.098;21.006;2023-04-24T02:07:53;99363.60;;;9.48
68127;BMP180;54931;52.098;21.006;2023-04-24T02:10:21;99360.20;;;9.40
68127;BMP180;54931;52.098;21.006;2023-04-24T02:12:49;99358.80;;;9.40
68127;BMP180;54931;52.098;21.006;2023-04-24T02:15:17;99356.00;;;9.40
68127;BMP180;54931;52.098;21.006;2023-04-24T02:17:45;99355.20;;;9.40
68127;BMP180;54931;52.098;21.006;2023-04-24T02:20:12;99346.80;;;9.30
68127;BMP180;54931;52.098;21.006;2023-04-24T02:22:41;99336.60;;;9.30
68127;BMP180;54931;52.098;21.006;2023-04-24T02:25:09;99334.20;;;9.30
68127;BMP180;54931;52.098;21.006;2023-04-24T02:27:36;99334.80;;;9.30
68127;BMP180;54931;52.098;21.006;2023-04-24T02:30:06;99330.60;;;9.20
68127;BMP180;54931;52.098;21.006;2023-04-24T02:32:34;99330.40;;;9.10
68127;BMP180;54931;52.098;21.006;2023-04-24T02:35:03;99330.40;;;9.10
68127;BMP180;54931;52.098;21.006;2023-04-24T02:37:31;99323.80;;;9.00
68127;BMP180;54931;52.098;21.006;2023-04-24T02:39:59;99324.80;;;9.00
68127;BMP180;54931;52.098;21.006;2023-04-24T02:42:26;99322.20;;;8.90
68127;BMP180;54931;52.098;21.006;2023-04-24T02:44:54;99320.20;;;8.90
68127;BMP180;54931;52.098;21.006;2023-04-24T02:47:21;99323.40;;;8.80
68127;BMP180;54931;52.098;21.006;2023-04-24T02:49:48;99318.20;;;8.70
68127;BMP180;54931;52.098;21.006;2023-04-24T02:52:16;99317.00;;;8.60
68127;BMP180;54931;52.098;21.006;2023-04-24T02:54:44;99319.40;;;8.50
68127;BMP180;54931;52.098;21.006;2023-04-24T02:57:12;99316.60;;;8.40
68127;BMP180;54931;52.098;21.006;2023-04-24T02:59:39;99311.20;;;8.30
68127;BMP180;54931;52.098;21.006;2023-04-24T03:02:07;99315.20;;;8.20
68127;BMP180;54931;52.098;21.006;2023-04-24T03:04:34;99311.80;;;8.20
68127;BMP180;54931;52.098;21.006;2023-04-24T03:07:02;99313.00;;;8.20
68127;BMP180;54931;52.098;21.006;2023-04-24T03:09:30;99314.00;;;8.10
68127;BMP180;54931;52.098;21.006;2023-04-24T03:11:57;99314.80;;;8.10
68127;BMP180;54931;52.098;21.006;2023-04-24T03:14:25;99319.40;;;8.00
68127;BMP180;54931;52.098;21.006;2023-04-24T03:16:53;99313.40;;;7.90
68127;BMP180;54931;52.098;21.006;2023-04-24T03:19:20;99312.80;;;7.86
68127;BMP180;54931;52.098;21.006;2023-04-24T03:21:49;99309.00;;;7.80
68127;BMP180;54931;52.098;21.006;2023-04-24T03:24:17;99308.20;;;7.80
68127;BMP180;54931;52.098;21.006;2023-04-24T03:26:44;99307.60;;;7.72
68127;BMP180;54931;52.098;21.006;2023-04-24T03:29:12;99316.00;;;7.80
68127;BMP180;54931;52.098;21.006;2023-04-24T03:31:40;99318.40;;;7.80
68127;BMP180;54931;52.098;21.006;2023-04-24T03:34:07;99322.60;;;7.74
68127;BMP180;54931;52.098;21.006;2023-04-24T03:36:35;99325.00;;;7.70
68127;BMP180;54931;52.098;21.006;2023-04-24T03:39:03;99322.40;;;7.70
68127;BMP180;54931;52.098;21.006;2023-04-24T03:41:31;99325.00;;;7.70
68127;BMP180;54931;52.098;21.006;2023-04-24T03:43:59;99323.40;;;7.70
68127;BMP180;54931;52.098;21.006;2023-04-24T03:46:29;99326.40;;;7.70
68127;BMP180;54931;52.098;21.006;2023-04-24T03:48:56;99329.60;;;7.80
68127;BMP180;54931;52.098;21.006;2023-04-24T03:51:24;99328.20;;;7.80
68127;BMP180;54931;52.098;21.006;2023-04-24T03:53:52;99331.00;;;7.82
68127;BMP180;54931;52.098;21.006;2023-04-24T03:56:20;99334.40;;;7.90
68127;BMP180;54931;52.098;21.006;2023-04-24T03:58:48;99325.00;;;8.00
68127;BMP180;54931;52.098;21.006;2023-04-24T04:01:15;99322.40;;;8.06
68127;BMP180;54931;52.098;21.006;2023-04-24T04:03:43;99319.60;;;8.20
68127;BMP180;54931;52.098;21.006;2023-04-24T04:06:11;99325.40;;;8.30
68127;BMP180;54931;52.098;21.006;2023-04-24T04:08:40;99334.40;;;8.50
68127;BMP180;54931;52.098;21.006;2023-04-24T04:11:07;99328.20;;;8.70
68127;BMP180;54931;52.098;21.006;2023-04-24T04:13:35;99330.20;;;8.80
68127;BMP180;54931;52.098;21.006;2023-04-24T04:16:03;99334.80;;;8.92
68127;BMP180;54931;52.098;21.006;2023-04-24T04:18:30;99328.20;;;9.10
68127;BMP180;54931;52.098;21.006;2023-04-24T04:20:58;99332.40;;;9.24
68127;BMP180;54931;52.098;21.006;2023-04-24T04:23:26;99329.40;;;9.40
68127;BMP180;54931;52.098;21.006;2023-04-24T04:25:53;99335.20;;;9.50
68127;BMP180;54931;52.098;21.006;2023-04-24T04:28:22;99335.00;;;9.60
68127;BMP180;54931;52.098;21.006;2023-04-24T04:30:49;99338.20;;;9.70
68127;BMP180;54931;52.098;21.006;2023-04-24T04:33:22;99334.40;;;9.80
68127;BMP180;54931;52.098;21.006;2023-04-24T04:35:50;99333.60;;;9.90
68127;BMP180;54931;52.098;21.006;2023-04-24T04:38:20;99335.60;;;10.00
68127;BMP180;54931;52.098;21.006;2023-04-24T04:40:48;99329.60;;;10.10
68127;BMP180;54931;52.098;21.006;2023-04-24T04:43:15;99331.80;;;10.26
68127;BMP180;54931;52.098;21.006;2023-04-24T04:45:43;99330.20;;;10.54
68127;BMP180;54931;52.098;21.006;2023-04-24T04:48:12;99328.20;;;10.80
68127;BMP180;54931;52.098;21.006;2023-04-24T04:50:41;99326.20;;;11.08
68127;BMP180;54931;52.098;21.006;2023-04-24T04:53:08;99324.60;;;11.22
68127;BMP180;54931;52.098;21.006;2023-04-24T04:55:38;99326.40;;;11.52
68127;BMP180;54931;52.098;21.006;2023-04-24T04:58:06;99324.60;;;11.80
68127;BMP180;54931;52.098;21.006;2023-04-24T05:00:33;99325.00;;;12.08
68127;BMP180;54931;52.098;21.006;2023-04-24T05:03:05;99325.60;;;12.38
68127;BMP180;54931;52.098;21.006;2023-04-24T05:05:32;99321.80;;;12.62
68127;BMP180;54931;52.098;21.006;2023-04-24T05:08:00;99321.80;;;12.90
68127;BMP180;54931;52.098;21.006;2023-04-24T05:10:27;99322.20;;;13.12
68127;BMP180;54931;52.098;21.006;2023-04-24T05:12:55;99318.60;;;13.34
68127;BMP180;54931;52.098;21.006;2023-04-24T05:15:24;99320.00;;;13.50
68127;BMP180;54931;52.098;21.006;2023-04-24T05:17:51;99320.40;;;13.60
68127;BMP180;54931;52.098;21.006;2023-04-24T05:20:18;99321.20;;;13.86
68127;BMP180;54931;52.098;21.006;2023-04-24T05:22:46;99325.40;;;14.10
68127;BMP180;54931;52.098;21.006;2023-04-24T05:25:14;99325.20;;;14.38
68127;BMP180;54931;52.098;21.006;2023-04-24T05:27:42;99325.20;;;14.60
68127;BMP180;54931;52.098;21.006;2023-04-24T05:30:10;99324.00;;;14.76
68127;BMP180;54931;52.098;21.006;2023-04-24T05:32:38;99319.20;;;14.90
68127;BMP180;54931;52.098;21.006;2023-04-24T05:35:06;99320.20;;;15.18
68127;BMP180;54931;52.098;21.006;2023-04-24T05:37:35;99314.40;;;15.36
68127;BMP180;54931;52.098;21.006;2023-04-24T05:40:03;99317.40;;;15.56
68127;BMP180;54931;52.098;21.006;2023-04-24T05:42:32;99312.60;;;15.90
68127;BMP180;54931;52.098;21.006;2023-04-24T05:45:00;99315.20;;;16.22
68127;BMP180;54931;52.098;21.006;2023-04-24T05:47:27;99321.80;;;16.52
68127;BMP180;54931;52.098;21.006;2023-04-24T05:49:57;99320.40;;;16.80
68127;BMP180;54931;52.098;21.006;2023-04-24T05:52:25;99323.20;;;17.10
68127;BMP180;54931;52.098;21.006;2023-04-24T05:54:53;99316.40;;;17.18
68127;BMP180;54931;52.098;21.006;2023-04-24T05:57:20;99314.60;;;17.30
68127;BMP180;54931;52.098;21.006;2023-04-24T05:59:48;99315.20;;;17.40
68127;BMP180;54931;52.098;21.006;2023-04-24T06:02:16;99316.20;;;17.50
68127;BMP180;54931;52.098;21.006;2023-04-24T06:04:45;99315.00;;;17.60
68127;BMP180;54931;52.098;21.006;2023-04-24T06:07:14;99310.40;;;17.70
68127;BMP180;54931;52.098;21.006;2023-04-24T06:09:41;99309.60;;;17.70
68127;BMP180;54931;52.098;21.006;2023-04-24T06:12:09;99314.60;;;17.86
68127;BMP180;54931;52.098;21.006;2023-04-24T06:14:37;99315.60;;;18.10
68127;BMP180;54931;52.098;21.006;2023-04-24T06:17:04;99316.80;;;18.20
68127;BMP180;54931;52.098;21.006;2023-04-24T06:19:32;99317.60;;;18.20
68127;BMP180;54931;52.098;21.006;2023-04-24T06:22:00;99317.60;;;18.40
68127;BMP180;54931;52.098;21.006;2023-04-24T06:24:28;99314.60;;;18.40
68127;BMP180;54931;52.098;21.006;2023-04-24T06:26:56;99313.00;;;18.50
68127;BMP180;54931;52.098;21.006;2023-04-24T06:29:26;99311.00;;;18.70
68127;BMP180;54931;52.098;21.006;2023-04-24T06:31:54;99308.00;;;18.72
68127;BMP180;54931;52.098;21.006;2023-04-24T06:34:22;99305.60;;;18.90
68127;BMP180;54931;52.098;21.006;2023-04-24T06:36:50;99297.20;;;19.02
68127;BMP180;54931;52.098;21.006;2023-04-24T06:39:17;99301.60;;;19.20
68127;BMP180;54931;52.098;21.006;2023-04-24T06:41:45;99298.40;;;19.40
68127;BMP180;54931;52.098;21.006;2023-04-24T06:44:12;99294.00;;;19.64
68127;BMP180;54931;52.098;21.006;2023-04-24T06:46:41;99297.20;;;19.90
68127;BMP180;54931;52.098;21.006;2023-04-24T06:49:09;99297.80;;;19.90
68127;BMP180;54931;52.098;21.006;2023-04-24T06:51:36;99302.20;;;19.50
68127;BMP180;54931;52.098;21.006;2023-04-24T06:54:04;99295.80;;;19.06
68127;BMP180;54931;52.098;21.006;2023-04-24T06:56:32;99295.20;;;18.94
68127;BMP180;54931;52.098;21.006;2023-04-24T06:59:01;99295.20;;;19.00
68127;BMP180;54931;52.098;21.006;2023-04-24T07:01:28;99300.20;;;19.00
68127;BMP180;54931;52.098;21.006;2023-04-24T07:03:56;99298.60;;;19.00
68127;BMP180;54931;52.098;21.006;2023-04-24T07:06:24;99298.40;;;19.00
68127;BMP180;54931;52.098;21.006;2023-04-24T07:08:51;99295.60;;;19.10
68127;BMP180;54931;52.098;21.006;2023-04-24T07:11:19;99298.00;;;19.38
68127;BMP180;54931;52.098;21.006;2023-04-24T07:13:47;99298.40;;;19.88
68127;BMP180;54931;52.098;21.006;2023-04-24T07:16:14;99306.60;;;20.10
68127;BMP180;54931;52.098;21.006;2023-04-24T07:18:42;99296.20;;;20.00
68127;BMP180;54931;52.098;21.006;2023-04-24T07:21:09;99296.60;;;20.32
68127;BMP180;54931;52.098;21.006;2023-04-24T07:23:37;99298.40;;;20.70
68127;BMP180;54931;52.098;21.006;2023-04-24T07:26:04;99295.40;;;20.78
68127;BMP180;54931;52.098;21.006;2023-04-24T07:28:32;99296.40;;;21.04
68127;BMP180;54931;52.098;21.006;2023-04-24T07:30:59;99294.40;;;21.40
68127;BMP180;54931;52.098;21.006;2023-04-24T07:33:27;99300.20;;;21.82
68127;BMP180;54931;52.098;21.006;2023-04-24T07:35:54;99303.00;;;22.10
68127;BMP180;54931;52.098;21.006;2023-04-24T07:38:22;99302.80;;;22.10
68127;BMP180;54931;52.098;21.006;2023-04-24T07:40:49;99301.40;;;21.90
68127;BMP180;54931;52.098;21.006;2023-04-24T07:43:19;99305.80;;;21.70
68127;BMP180;54931;52.098;21.006;2023-04-24T07:45:48;99297.80;;;21.78
68127;BMP180;54931;52.098;21.006;2023-04-24T07:48:16;99300.80;;;22.10
68127;BMP180;54931;52.098;21.006;2023-04-24T07:50:45;99298.00;;;22.58
68127;BMP180;54931;52.098;21.006;2023-04-24T07:53:12;99297.60;;;22.88
68127;BMP180;54931;52.098;21.006;2023-04-24T07:55:40;99294.40;;;23.28
68127;BMP180;54931;52.098;21.006;2023-04-24T07:58:07;99294.60;;;23.72
68127;BMP180;54931;52.098;21.006;2023-04-24T08:00:35;99290.00;;;23.94
68127;BMP180;54931;52.098;21.006;2023-04-24T08:03:02;99286.20;;;24.16
68127;BMP180;54931;52.098;21.006;2023-04-24T08:05:30;99290.80;;;24.20
68127;BMP180;54931;52.098;21.006;2023-04-24T08:07:58;99288.20;;;24.40
68127;BMP180;54931;52.098;21.006;2023-04-24T08:10:26;99291.60;;;24.80
68127;BMP180;54931;52.098;21.006;2023-04-24T08:12:53;99296.20;;;25.10
68127;BMP180;54931;52.098;21.006;2023-04-24T08:15:22;99295.40;;;24.98
68127;BMP180;54931;52.098;21.006;2023-04-24T08:17:50;99304.20;;;24.70
68127;BMP180;54931;52.098;21.006;2023-04-24T08:20:17;99300.20;;;24.40
68127;BMP180;54931;52.098;21.006;2023-04-24T08:22:45;99305.00;;;24.00
68127;BMP180;54931;52.098;21.006;2023-04-24T08:25:14;99305.80;;;23.60
68127;BMP180;54931;52.098;21.006;2023-04-24T08:27:42;99298.60;;;23.36
68127;BMP180;54931;52.098;21.006;2023-04-24T08:30:11;99301.60;;;23.10
68127;BMP180;54931;52.098;21.006;2023-04-24T08:32:39;99303.20;;;22.90
68127;BMP180;54931;52.098;21.006;2023-04-24T08:35:06;99298.60;;;22.50
68127;BMP180;54931;52.098;21.006;2023-04-24T08:37:36;99294.20;;;22.06
68127;BMP180;54931;52.098;21.006;2023-04-24T08:40:12;99291.40;;;21.80
68127;BMP180;54931;52.098;21.006;2023-04-24T08:42:44;99293.80;;;21.90
68127;BMP180;54931;52.098;21.006;2023-04-24T08:45:13;99294.60;;;22.00
68127;BMP180;54931;52.098;21.006;2023-04-24T08:47:42;99291.60;;;22.42
68127;BMP180;54931;52.098;21.006;2023-04-24T08:50:11;99288.40;;;23.14
68127;BMP180;54931;52.098;21.006;2023-04-24T08:52:41;99287.80;;;23.84
68127;BMP180;54931;52.098;21.006;2023-04-24T08:55:10;99282.20;;;24.62
68127;BMP180;54931;52.098;21.006;2023-04-24T08:57:39;99280.00;;;24.90
68127;BMP180;54931;52.098;21.006;2023-04-24T09:00:08;99281.40;;;25.32
68127;BMP180;54931;52.098;21.006;2023-04-24T09:02:40;99280.80;;;25.60
68127;BMP180;54931;52.098;21.006;2023-04-24T09:05:10;99285.20;;;25.70
68127;BMP180;54931;52.098;21.006;2023-04-24T09:07:41;99285.80;;;25.60
68127;BMP180;54931;52.098;21.006;2023-04-24T09:10:12;99283.80;;;25.70
68127;BMP180;54931;52.098;21.006;2023-04-24T09:12:41;99282.40;;;25.38
68127;BMP180;54931;52.098;21.006;2023-04-24T09:15:10;99286.60;;;25.40
68127;BMP180;54931;52.098;21.006;2023-04-24T09:17:38;99279.60;;;25.60
68127;BMP180;54931;52.098;21.006;2023-04-24T09:20:07;99282.00;;;25.88
68127;BMP180;54931;52.098;21.006;2023-04-24T09:22:36;99275.20;;;25.94
68127;BMP180;54931;52.098;21.006;2023-04-24T09:25:08;99271.80;;;26.04
68127;BMP180;54931;52.098;21.006;2023-04-24T09:27:36;99274.00;;;26.26
68127;BMP180;54931;52.098;21.006;2023-04-24T09:30:10;99270.60;;;26.32
68127;BMP180;54931;52.098;21.006;2023-04-24T09:32:38;99270.60;;;26.00
68127;BMP180;54931;52.098;21.006;2023-04-24T09:35:14;99270.80;;;26.10
68127;BMP180;54931;52.098;21.006;2023-04-24T09:37:47;99272.20;;;26.28
68127;BMP180;54931;52.098;21.006;2023-04-24T09:40:19;99269.20;;;26.20
68127;BMP180;54931;52.098;21.006;2023-04-24T09:42:56;99265.20;;;26.20
68127;BMP180;54931;52.098;21.006;2023-04-24T09:45:35;99261.20;;;26.10
68127;BMP180;54931;52.098;21.006;2023-04-24T09:48:03;99260.40;;;26.14
68127;BMP180;54931;52.098;21.006;2023-04-24T09:50:32;99263.60;;;25.80
68127;BMP180;54931;52.098;21.006;2023-04-24T09:53:05;99257.40;;;25.46
68127;BMP180;54931;52.098;21.006;2023-04-24T09:55:32;99253.40;;;25.44
68127;BMP180;54931;52.098;21.006;2023-04-24T09:58:01;99253.20;;;25.50
68127;BMP180;54931;52.098;21.006;2023-04-24T10:00:33;99253.00;;;25.68
68127;BMP180;54931;52.098;21.006;2023-04-24T10:03:03;99248.40;;;26.08
68127;BMP180;54931;52.098;21.006;2023-04-24T10:05:36;99245.00;;;26.38
68127;BMP180;54931;52.098;21.006;2023-04-24T10:08:09;99244.00;;;26.60
68127;BMP180;54931;52.098;21.006;2023-04-24T10:10:46;99240.20;;;26.80
68127;BMP180;54931;52.098;21.006;2023-04-24T10:13:14;99237.20;;;26.80
68127;BMP180;54931;52.098;21.006;2023-04-24T10:15:48;99240.20;;;26.40
68127;BMP180;54931;52.098;21.006;2023-04-24T10:18:18;99239.80;;;26.20
68127;BMP180;54931;52.098;21.006;2023-04-24T10:20:48;99233.60;;;26.18
68127;BMP180;54931;52.098;21.006;2023-04-24T10:23:16;99230.20;;;26.40
68127;BMP180;54931;52.098;21.006;2023-04-24T10:25:48;99226.80;;;26.40
68127;BMP180;54931;52.098;21.006;2023-04-24T10:28:19;99226.00;;;26.40
68127;BMP180;54931;52.098;21.006;2023-04-24T10:30:47;99220.80;;;26.48
68127;BMP180;54931;52.098;21.006;2023-04-24T10:33:16;99221.40;;;26.80
68127;BMP180;54931;52.098;21.006;2023-04-24T10:35:47;99220.20;;;26.86
68127;BMP180;54931;52.098;21.006;2023-04-24T10:38:25;99216.20;;;26.98
68127;BMP180;54931;52.098;21.006;2023-04-24T10:41:11;99215.20;;;26.70
68127;BMP180;54931;52.098;21.006;2023-04-24T10:46:39;99213.80;;;26.10
68127;BMP180;54931;52.098;21.006;2023-04-24T10:49:08;99206.40;;;25.64
68127;BMP180;54931;52.098;21.006;2023-04-24T10:51:53;99205.40;;;25.72
68127;BMP180;54931;52.098;21.006;2023-04-24T10:54:41;99201.80;;;25.70
68127;BMP180;54931;52.098;21.006;2023-04-24T11:00:09;99196.40;;;25.48
68127;BMP180;54931;52.098;21.006;2023-04-24T11:02:40;99201.80;;;25.68
68127;BMP180;54931;52.098;21.006;2023-04-24T11:05:10;99195.00;;;25.70
68127;BMP180;54931;52.098;21.006;2023-04-24T11:08:14;99199.00;;;25.58
68127;BMP180;54931;52.098;21.006;2023-04-24T11:10:57;99197.00;;;25.32
68127;BMP180;54931;52.098;21.006;2023-04-24T11:14:09;99196.20;;;25.40
68127;BMP180;54931;52.098;21.006;2023-04-24T11:16:54;99193.80;;;25.50
68127;BMP180;54931;52.098;21.006;2023-04-24T11:19:26;99195.20;;;25.56
68127;BMP180;54931;52.098;21.006;2023-04-24T11:22:05;99194.60;;;25.60
68127;BMP180;54931;52.098;21.006;2023-04-24T11:27:21;99188.80;;;25.00
68127;BMP180;54931;52.098;21.006;2023-04-24T11:30:00;99189.40;;;24.90
68127;BMP180;54931;52.098;21.006;2023-04-24T11:35:16;99187.00;;;24.92
68127;BMP180;54931;52.098;21.006;2023-04-24T11:37:47;99186.60;;;25.10
68127;BMP180;54931;52.098;21.006;2023-04-24T11:40:19;99186.20;;;25.16
68127;BMP180;54931;52.098;21.006;2023-04-24T11:42:49;99187.60;;;25.26
68127;BMP180;54931;52.098;21.006;2023-04-24T11:45:26;99183.80;;;25.24
68127;BMP180;54931;52.098;21.006;2023-04-24T11:47:54;99186.80;;;25.30
68127;BMP180;54931;52.098;21.006;2023-04-24T11:50:24;99179.20;;;25.20
68127;BMP180;54931;52.098;21.006;2023-04-24T11:52:56;99178.00;;;25.20
68127;BMP180;54931;52.098;21.006;2023-04-24T11:55:27;99181.20;;;25.08
68127;BMP180;54931;52.098;21.006;2023-04-24T11:57:58;99181.40;;;25.10
68127;BMP180;54931;52.098;21.006;2023-04-24T12:00:32;99176.80;;;25.06
68127;BMP180;54931;52.098;21.006;2023-04-24T12:03:13;99175.60;;;24.90
68127;BMP180;54931;52.098;21.006;2023-04-24T12:05:40;99169.00;;;24.90
68127;BMP180;54931;52.098;21.006;2023-04-24T12:08:08;99168.40;;;25.00
68127;BMP180;54931;52.098;21.006;2023-04-24T12:10:36;99160.80;;;25.26
68127;BMP180;54931;52.098;21.006;2023-04-24T12:13:03;99158.40;;;25.42
68127;BMP180;54931;52.098;21.006;2023-04-24T12:15:31;99152.20;;;25.50
68127;BMP180;54931;52.098;21.006;2023-04-24T12:17:59;99156.80;;;25.20
68127;BMP180;54931;52.098;21.006;2023-04-24T12:20:32;99156.80;;;25.20
68127;BMP180;54931;52.098;21.006;2023-04-24T12:23:01;99157.20;;;25.20
68127;BMP180;54931;52.098;21.006;2023-04-24T12:25:32;99164.60;;;25.00
68127;BMP180;54931;52.098;21.006;2023-04-24T12:30:39;99190.20;;;23.78
68127;BMP180;54931;52.098;21.006;2023-04-24T12:33:07;99197.60;;;22.94
68127;BMP180;54931;52.098;21.006;2023-04-24T12:35:34;99198.40;;;22.60
68127;BMP180;54931;52.098;21.006;2023-04-24T12:38:13;99205.40;;;22.54
68127;BMP180;54931;52.098;21.006;2023-04-24T12:40:42;99206.60;;;22.30
68127;BMP180;54931;52.098;21.006;2023-04-24T12:43:19;99204.60;;;22.34
68127;BMP180;54931;52.098;21.006;2023-04-24T12:45:48;99198.60;;;22.40
68127;BMP180;54931;52.098;21.006;2023-04-24T12:48:16;99187.40;;;22.52
68127;BMP180;54931;52.098;21.006;2023-04-24T12:50:44;99186.40;;;22.72
68127;BMP180;54931;52.098;21.006;2023-04-24T12:53:15;99185.00;;;22.98
68127;BMP180;54931;52.098;21.006;2023-04-24T12:55:44;99184.00;;;22.90
68127;BMP180;54931;52.098;21.006;2023-04-24T12:58:13;99176.80;;;22.94
68127;BMP180;54931;52.098;21.006;2023-04-24T13:00:41;99180.00;;;23.00
68127;BMP180;54931;52.098;21.006;2023-04-24T13:03:11;99182.00;;;22.90
68127;BMP180;54931;52.098;21.006;2023-04-24T13:05:39;99181.40;;;23.00
68127;BMP180;54931;52.098;21.006;2023-04-24T13:08:06;99182.60;;;22.92
68127;BMP180;54931;52.098;21.006;2023-04-24T13:10:35;99183.60;;;22.70
68127;BMP180;54931;52.098;21.006;2023-04-24T13:13:02;99184.60;;;22.30
68127;BMP180;54931;52.098;21.006;2023-04-24T13:15:30;99178.20;;;22.12
68127;BMP180;54931;52.098;21.006;2023-04-24T13:17:58;99187.80;;;22.00
68127;BMP180;54931;52.098;21.006;2023-04-24T13:20:25;99188.20;;;22.24
68127;BMP180;54931;52.098;21.006;2023-04-24T13:22:53;99182.60;;;22.60
68127;BMP180;54931;52.098;21.006;2023-04-24T13:25:21;99181.20;;;23.00
68127;BMP180;54931;52.098;21.006;2023-04-24T13:27:49;99181.40;;;23.32
68127;BMP180;54931;52.098;21.006;2023-04-24T13:30:18;99182.80;;;22.86
68127;BMP180;54931;52.098;21.006;2023-04-24T13:32:46;99181.20;;;22.60
68127;BMP180;54931;52.098;21.006;2023-04-24T13:35:14;99182.20;;;21.94
68127;BMP180;54931;52.098;21.006;2023-04-24T13:37:42;99183.60;;;21.30
68127;BMP180;54931;52.098;21.006;2023-04-24T13:40:10;99174.00;;;20.70
68127;BMP180;54931;52.098;21.006;2023-04-24T13:42:40;99173.00;;;20.20
68127;BMP180;54931;52.098;21.006;2023-04-24T13:45:09;99167.60;;;19.82
68127;BMP180;54931;52.098;21.006;2023-04-24T13:47:37;99166.00;;;19.70
68127;BMP180;54931;52.098;21.006;2023-04-24T13:50:09;99153.20;;;19.50
68127;BMP180;54931;52.098;21.006;2023-04-24T13:52:37;99150.20;;;19.20
68127;BMP180;54931;52.098;21.006;2023-04-24T13:55:05;99147.00;;;19.10
68127;BMP180;54931;52.098;21.006;2023-04-24T13:57:33;99144.60;;;19.20
68127;BMP180;54931;52.098;21.006;2023-04-24T14:00:01;99133.60;;;19.30
68127;BMP180;54931;52.098;21.006;2023-04-24T14:02:31;99121.80;;;19.50
68127;BMP180;54931;52.098;21.006;2023-04-24T14:04:59;99117.60;;;19.70
68127;BMP180;54931;52.098;21.006;2023-04-24T14:07:28;99111.80;;;20.02
68127;BMP180;54931;52.098;21.006;2023-04-24T14:09:55;99113.60;;;20.30
68127;BMP180;54931;52.098;21.006;2023-04-24T14:12:24;99108.60;;;20.60
68127;BMP180;54931;52.098;21.006;2023-04-24T14:14:51;99103.80;;;20.98
68127;BMP180;54931;52.098;21.006;2023-04-24T14:17:19;99097.60;;;21.66
68127;BMP180;54931;52.098;21.006;2023-04-24T14:19:47;99099.20;;;22.36
68127;BMP180;54931;52.098;21.006;2023-04-24T14:22:14;99091.40;;;23.18
68127;BMP180;54931;52.098;21.006;2023-04-24T14:24:42;99089.20;;;23.80